sensor_id;sensor_type;location;lat;lon;timestamp;P1;durP1;ratioP1;P2;durP2;ratioP2
40533;SDS011;26233;51.894;10.192;2022-07-01T00:00:16;4.30;;;3.88;;
40533;SDS011;26233;51.894;10.192;2022-07-01T00:02:46;4.05;;;3.75;;
40533;SDS011;26233;51.894;10.192;2022-07-01T00:05:16;4.10;;;3.70;;
40533;SDS011;26233;51.894;10.192;2022-07-01T00:07:44;3.75;;;3.45;;
40533;SDS011;26233;51.894;10.192;2022-07-01T00:10:11;4.07;;;3.78;;
40533;SDS011;26233;51.894;10.192;2022-07-01T00:12:39;3.85;;;3.55;;
40533;SDS011;26233;51.894;10.192;2022-07-01T00:15:06;4.15;;;3.78;;
40533;SDS011;26233;51.894;10.192;2022-07-01T00:17:35;3.97;;;3.67;;
40533;SDS011;26233;51.894;10.192;2022-07-01T00:20:02;3.83;;;3.55;;
40533;SDS011;26233;51.894;10.192;2022-07-01T00:22:32;4.72;;;3.65;;
40533;SDS011;26233;51.894;10.192;2022-07-01T00:24:59;3.90;;;3.38;;
40533;SDS011;26233;51.894;10.192;2022-07-01T00:27:26;4.40;;;3.70;;
40533;SDS011;26233;51.894;10.192;2022-07-01T00:29:53;4.28;;;3.97;;
40533;SDS011;26233;51.894;10.192;2022-07-01T00:32:20;4.03;;;3.55;;
40533;SDS011;26233;51.894;10.192;2022-07-01T00:34:47;5.28;;;4.88;;
40533;SDS011;26233;51.894;10.192;2022-07-01T00:37:17;5.30;;;4.90;;
40533;SDS011;26233;51.894;10.192;2022-07-01T00:39:46;6.53;;;6.03;;
40533;SDS011;26233;51.894;10.192;2022-07-01T00:42:13;6.95;;;6.45;;
40533;SDS011;26233;51.894;10.192;2022-07-01T00:44:40;6.82;;;6.32;;
40533;SDS011;26233;51.894;10.192;2022-07-01T00:47:08;7.82;;;7.22;;
40533;SDS011;26233;51.894;10.192;2022-07-01T00:49:37;7.82;;;7.30;;
40533;SDS011;26233;51.894;10.192;2022-07-01T00:52:05;8.45;;;7.85;;
40533;SDS011;26233;51.894;10.192;2022-07-01T00:54:35;8.55;;;7.85;;
40533;SDS011;26233;51.894;10.192;2022-07-01T00:57:08;7.63;;;7.03;;
40533;SDS011;26233;51.894;10.192;2022-07-01T00:59:37;8.07;;;7.47;;
40533;SDS011;26233;51.894;10.192;2022-07-01T01:02:06;7.78;;;7.18;;
40533;SDS011;26233;51.894;10.192;2022-07-01T01:04:34;8.80;;;8.18;;
40533;SDS011;26233;51.894;10.192;2022-07-01T01:07:02;8.15;;;7.45;;
40533;SDS011;26233;51.894;10.192;2022-07-01T01:09:30;7.35;;;6.85;;
40533;SDS011;26233;51.894;10.192;2022-07-01T01:11:58;8.15;;;7.55;;
40533;SDS011;26233;51.894;10.192;2022-07-01T01:14:28;7.38;;;6.85;;
40533;SDS011;26233;51.894;10.192;2022-07-01T01:16:55;7.82;;;7.22;;
40533;SDS011;26233;51.894;10.192;2022-07-01T01:19:24;8.43;;;7.72;;
40533;SDS011;26233;51.894;10.192;2022-07-01T01:21:53;8.25;;;7.60;;
40533;SDS011;26233;51.894;10.192;2022-07-01T01:24:20;8.00;;;7.40;;
40533;SDS011;26233;51.894;10.192;2022-07-01T01:26:48;7.70;;;7.00;;
40533;SDS011;26233;51.894;10.192;2022-07-01T01:29:15;8.18;;;7.53;;
40533;SDS011;26233;51.894;10.192;2022-07-01T01:31:42;7.82;;;7.22;;
40533;SDS011;26233;51.894;10.192;2022-07-01T01:34:09;7.30;;;6.80;;
40533;SDS011;26233;51.894;10.192;2022-07-01T01:36:36;7.70;;;7.10;;
40533;SDS011;26233;51.894;10.192;2022-07-01T01:39:05;8.27;;;7.68;;
40533;SDS011;26233;51.894;10.192;2022-07-01T01:41:35;8.05;;;7.45;;
40533;SDS011;26233;51.894;10.192;2022-07-01T01:44:02;7.22;;;6.72;;
40533;SDS011;26233;51.894;10.192;2022-07-01T01:46:29;7.72;;;7.13;;
40533;SDS011;26233;51.894;10.192;2022-07-01T01:48:56;7.80;;;7.20;;
40533;SDS011;26233;51.894;10.192;2022-07-01T01:51:24;8.02;;;7.43;;
40533;SDS011;26233;51.894;10.192;2022-07-01T01:53:51;7.43;;;6.93;;
40533;SDS011;26233;51.894;10.192;2022-07-01T01:56:20;6.78;;;6.28;;
40533;SDS011;26233;51.894;10.192;2022-07-01T01:58:47;6.30;;;5.80;;
40533;SDS011;26233;51.894;10.192;2022-07-01T02:01:15;6.97;;;6.47;;
40533;SDS011;26233;51.894;10.192;2022-07-01T02:03:43;6.93;;;6.15;;
40533;SDS011;26233;51.894;10.192;2022-07-01T02:06:12;6.35;;;5.93;;
40533;SDS011;26233;51.894;10.192;2022-07-01T02:08:40;6.72;;;6.22;;
40533;SDS011;26233;51.894;10.192;2022-07-01T02:11:08;6.20;;;5.70;;
40533;SDS011;26233;51.894;10.192;2022-07-01T02:13:37;5.72;;;5.32;;
40533;SDS011;26233;51.894;10.192;2022-07-01T02:16:04;5.75;;;5.35;;
40533;SDS011;26233;51.894;10.192;2022-07-01T02:18:31;5.57;;;5.18;;
40533;SDS011;26233;51.894;10.192;2022-07-01T02:20:59;5.43;;;5.03;;
40533;SDS011;26233;51.894;10.192;2022-07-01T02:23:26;5.25;;;4.85;;
40533;SDS011;26233;51.894;10.192;2022-07-01T02:25:54;5.25;;;4.80;;
40533;SDS011;26233;51.894;10.192;2022-07-01T02:28:21;4.97;;;4.68;;
40533;SDS011;26233;51.894;10.192;2022-07-01T02:30:50;4.72;;;4.32;;
40533;SDS011;26233;51.894;10.192;2022-07-01T02:33:17;4.78;;;4.38;;
40533;SDS011;26233;51.894;10.192;2022-07-01T02:35:44;4.07;;;3.80;;
40533;SDS011;26233;51.894;10.192;2022-07-01T02:38:11;3.63;;;3.42;;
40533;SDS011;26233;51.894;10.192;2022-07-01T02:40:38;3.22;;;3.03;;
40533;SDS011;26233;51.894;10.192;2022-07-01T02:43:06;3.33;;;3.13;;
40533;SDS011;26233;51.894;10.192;2022-07-01T02:45:35;3.50;;;3.20;;
40533;SDS011;26233;51.894;10.192;2022-07-01T02:48:05;2.80;;;2.60;;
40533;SDS011;26233;51.894;10.192;2022-07-01T02:50:32;2.63;;;2.42;;
40533;SDS011;26233;51.894;10.192;2022-07-01T02:52:59;2.50;;;2.30;;
40533;SDS011;26233;51.894;10.192;2022-07-01T02:55:26;2.35;;;2.15;;
40533;SDS011;26233;51.894;10.192;2022-07-01T02:57:54;1.92;;;1.83;;
40533;SDS011;26233;51.894;10.192;2022-07-01T03:00:23;2.05;;;1.88;;
40533;SDS011;26233;51.894;10.192;2022-07-01T03:02:51;1.27;;;1.20;;
40533;SDS011;26233;51.894;10.192;2022-07-01T03:05:20;1.48;;;1.38;;
40533;SDS011;26233;51.894;10.192;2022-07-01T03:07:47;1.20;;;1.15;;
40533;SDS011;26233;51.894;10.192;2022-07-01T03:10:14;1.10;;;1.10;;
40533;SDS011;26233;51.894;10.192;2022-07-01T03:12:41;1.20;;;1.10;;
40533;SDS011;26233;51.894;10.192;2022-07-01T03:15:09;1.20;;;1.10;;
40533;SDS011;26233;51.894;10.192;2022-07-01T03:17:39;1.30;;;1.20;;
40533;SDS011;26233;51.894;10.192;2022-07-01T03:20:09;1.67;;;1.17;;
40533;SDS011;26233;51.894;10.192;2022-07-01T03:22:40;1.30;;;1.20;;
40533;SDS011;26233;51.894;10.192;2022-07-01T03:25:10;1.50;;;1.40;;
40533;SDS011;26233;51.894;10.192;2022-07-01T03:27:38;1.77;;;1.30;;
40533;SDS011;26233;51.894;10.192;2022-07-01T03:30:10;1.70;;;1.60;;
40533;SDS011;26233;51.894;10.192;2022-07-01T03:32:38;1.60;;;1.50;;
40533;SDS011;26233;51.894;10.192;2022-07-01T03:35:05;1.70;;;1.60;;
40533;SDS011;26233;51.894;10.192;2022-07-01T03:37:49;1.75;;;1.48;;
40533;SDS011;26233;51.894;10.192;2022-07-01T03:40:16;1.48;;;1.38;;
40533;SDS011;26233;51.894;10.192;2022-07-01T03:42:45;1.77;;;1.58;;
40533;SDS011;26233;51.894;10.192;2022-07-01T03:45:12;1.60;;;1.50;;
40533;SDS011;26233;51.894;10.192;2022-07-01T03:47:44;1.73;;;1.63;;
40533;SDS011;26233;51.894;10.192;2022-07-01T03:50:12;1.80;;;1.70;;
40533;SDS011;26233;51.894;10.192;2022-07-01T03:52:39;1.65;;;1.55;;
40533;SDS011;26233;51.894;10.192;2022-07-01T03:55:08;1.60;;;1.50;;
40533;SDS011;26233;51.894;10.192;2022-07-01T03:57:35;1.58;;;1.45;;
40533;SDS011;26233;51.894;10.192;2022-07-01T04:00:03;1.63;;;1.52;;
40533;SDS011;26233;51.894;10.192;2022-07-01T04:02:32;2.40;;;1.60;;
40533;SDS011;26233;51.894;10.192;2022-07-01T04:04:59;1.70;;;1.60;;
40533;SDS011;26233;51.894;10.192;2022-07-01T04:07:26;2.38;;;1.63;;
40533;SDS011;26233;51.894;10.192;2022-07-01T04:09:53;1.65;;;1.55;;
40533;SDS011;26233;51.894;10.192;2022-07-01T04:12:21;1.73;;;1.60;;
40533;SDS011;26233;51.894;10.192;2022-07-01T04:14:48;1.50;;;1.40;;
40533;SDS011;26233;51.894;10.192;2022-07-01T04:17:16;1.77;;;1.63;;
40533;SDS011;26233;51.894;10.192;2022-07-01T04:19:43;1.98;;;1.60;;
40533;SDS011;26233;51.894;10.192;2022-07-01T04:22:10;2.30;;;1.40;;
40533;SDS011;26233;51.894;10.192;2022-07-01T04:24:54;1.67;;;1.58;;
40533;SDS011;26233;51.894;10.192;2022-07-01T04:27:22;1.75;;;1.30;;
40533;SDS011;26233;51.894;10.192;2022-07-01T04:29:50;1.33;;;1.23;;
40533;SDS011;26233;51.894;10.192;2022-07-01T04:32:17;1.38;;;1.20;;
40533;SDS011;26233;51.894;10.192;2022-07-01T04:34:44;1.13;;;1.10;;
40533;SDS011;26233;51.894;10.192;2022-07-01T04:37:11;1.30;;;1.20;;
40533;SDS011;26233;51.894;10.192;2022-07-01T04:39:38;1.20;;;1.10;;
40533;SDS011;26233;51.894;10.192;2022-07-01T04:42:05;1.38;;;1.20;;
40533;SDS011;26233;51.894;10.192;2022-07-01T04:44:34;1.30;;;1.20;;
40533;SDS011;26233;51.894;10.192;2022-07-01T04:47:03;1.42;;;1.33;;
40533;SDS011;26233;51.894;10.192;2022-07-01T04:49:31;1.30;;;1.20;;
40533;SDS011;26233;51.894;10.192;2022-07-01T04:51:58;1.60;;;1.50;;
40533;SDS011;26233;51.894;10.192;2022-07-01T04:54:26;1.40;;;1.30;;
40533;SDS011;26233;51.894;10.192;2022-07-01T04:56:53;1.48;;;1.30;;
40533;SDS011;26233;51.894;10.192;2022-07-01T04:59:21;1.63;;;1.52;;
40533;SDS011;26233;51.894;10.192;2022-07-01T05:01:49;1.70;;;1.60;;
40533;SDS011;26233;51.894;10.192;2022-07-01T05:04:16;1.60;;;1.50;;
40533;SDS011;26233;51.894;10.192;2022-07-01T05:06:44;1.70;;;1.60;;
40533;SDS011;26233;51.894;10.192;2022-07-01T05:09:11;2.00;;;1.80;;
40533;SDS011;26233;51.894;10.192;2022-07-01T05:11:39;1.73;;;1.63;;
40533;SDS011;26233;51.894;10.192;2022-07-01T05:14:06;1.73;;;1.63;;
40533;SDS011;26233;51.894;10.192;2022-07-01T05:16:34;1.77;;;1.67;;
40533;SDS011;26233;51.894;10.192;2022-07-01T05:19:03;2.38;;;2.17;;
40533;SDS011;26233;51.894;10.192;2022-07-01T05:21:48;2.03;;;1.92;;
40533;SDS011;26233;51.894;10.192;2022-07-01T05:24:21;2.05;;;1.90;;
40533;SDS011;26233;51.894;10.192;2022-07-01T05:26:49;2.30;;;2.05;;
40533;SDS011;26233;51.894;10.192;2022-07-01T05:29:16;2.10;;;1.90;;
40533;SDS011;26233;51.894;10.192;2022-07-01T05:31:43;2.40;;;2.20;;
40533;SDS011;26233;51.894;10.192;2022-07-01T05:34:12;2.10;;;1.90;;
40533;SDS011;26233;51.894;10.192;2022-07-01T05:36:39;2.20;;;2.00;;
40533;SDS011;26233;51.894;10.192;2022-07-01T05:39:06;2.55;;;2.08;;
40533;SDS011;26233;51.894;10.192;2022-07-01T05:41:36;2.42;;;2.22;;
40533;SDS011;26233;51.894;10.192;2022-07-01T05:44:04;2.20;;;2.00;;
40533;SDS011;26233;51.894;10.192;2022-07-01T05:46:31;3.50;;;2.15;;
40533;SDS011;26233;51.894;10.192;2022-07-01T05:48:58;2.42;;;2.20;;
40533;SDS011;26233;51.894;10.192;2022-07-01T05:51:27;2.10;;;1.95;;
40533;SDS011;26233;51.894;10.192;2022-07-01T05:53:54;2.17;;;1.98;;
40533;SDS011;26233;51.894;10.192;2022-07-01T05:56:23;1.83;;;1.73;;
40533;SDS011;26233;51.894;10.192;2022-07-01T05:58:50;1.80;;;1.70;;
40533;SDS011;26233;51.894;10.192;2022-07-01T06:01:18;2.17;;;1.98;;
40533;SDS011;26233;51.894;10.192;2022-07-01T06:03:45;2.10;;;1.90;;
40533;SDS011;26233;51.894;10.192;2022-07-01T06:06:12;2.45;;;2.08;;
40533;SDS011;26233;51.894;10.192;2022-07-01T06:08:41;2.10;;;1.90;;
40533;SDS011;26233;51.894;10.192;2022-07-01T06:11:08;1.80;;;1.70;;
40533;SDS011;26233;51.894;10.192;2022-07-01T06:13:35;1.90;;;1.80;;
40533;SDS011;26233;51.894;10.192;2022-07-01T06:16:02;1.77;;;1.60;;
40533;SDS011;26233;51.894;10.192;2022-07-01T06:18:30;1.90;;;1.70;;
40533;SDS011;26233;51.894;10.192;2022-07-01T06:20:57;2.30;;;1.67;;
40533;SDS011;26233;51.894;10.192;2022-07-01T06:23:24;6.38;;;1.90;;
40533;SDS011;26233;51.894;10.192;2022-07-01T06:25:53;1.70;;;1.60;;
40533;SDS011;26233;51.894;10.192;2022-07-01T06:28:20;1.73;;;1.63;;
40533;SDS011;26233;51.894;10.192;2022-07-01T06:30:47;1.40;;;1.30;;
40533;SDS011;26233;51.894;10.192;2022-07-01T06:33:14;1.55;;;1.45;;
40533;SDS011;26233;51.894;10.192;2022-07-01T06:35:41;1.42;;;1.33;;
40533;SDS011;26233;51.894;10.192;2022-07-01T06:38:08;1.65;;;1.33;;
40533;SDS011;26233;51.894;10.192;2022-07-01T06:40:35;1.75;;;1.52;;
40533;SDS011;26233;51.894;10.192;2022-07-01T06:43:04;1.52;;;1.20;;
40533;SDS011;26233;51.894;10.192;2022-07-01T06:45:31;1.48;;;1.38;;
40533;SDS011;26233;51.894;10.192;2022-07-01T06:47:58;1.70;;;1.60;;
40533;SDS011;26233;51.894;10.192;2022-07-01T06:50:25;1.70;;;1.60;;
40533;SDS011;26233;51.894;10.192;2022-07-01T06:52:53;2.05;;;1.60;;
40533;SDS011;26233;51.894;10.192;2022-07-01T06:55:23;1.70;;;1.60;;
40533;SDS011;26233;51.894;10.192;2022-07-01T06:57:51;1.88;;;1.73;;
40533;SDS011;26233;51.894;10.192;2022-07-01T07:00:20;2.05;;;1.70;;
40533;SDS011;26233;51.894;10.192;2022-07-01T07:02:47;2.20;;;2.00;;
40533;SDS011;26233;51.894;10.192;2022-07-01T07:05:14;1.77;;;1.67;;
40533;SDS011;26233;51.894;10.192;2022-07-01T07:07:41;1.83;;;1.70;;
40533;SDS011;26233;51.894;10.192;2022-07-01T07:10:08;2.00;;;1.90;;
40533;SDS011;26233;51.894;10.192;2022-07-01T07:12:35;2.28;;;2.10;;
40533;SDS011;26233;51.894;10.192;2022-07-01T07:15:03;2.30;;;2.10;;
40533;SDS011;26233;51.894;10.192;2022-07-01T07:17:32;2.28;;;2.15;;
40533;SDS011;26233;51.894;10.192;2022-07-01T07:20:03;2.55;;;2.35;;
40533;SDS011;26233;51.894;10.192;2022-07-01T07:22:31;3.30;;;3.10;;
40533;SDS011;26233;51.894;10.192;2022-07-01T07:24:58;2.92;;;2.72;;
40533;SDS011;26233;51.894;10.192;2022-07-01T07:27:25;3.10;;;2.90;;
40533;SDS011;26233;51.894;10.192;2022-07-01T07:29:53;3.20;;;2.90;;
40533;SDS011;26233;51.894;10.192;2022-07-01T07:32:20;3.47;;;3.17;;
40533;SDS011;26233;51.894;10.192;2022-07-01T07:34:49;3.53;;;3.22;;
40533;SDS011;26233;51.894;10.192;2022-07-01T07:37:16;3.50;;;3.25;;
40533;SDS011;26233;51.894;10.192;2022-07-01T07:39:44;3.75;;;3.45;;
40533;SDS011;26233;51.894;10.192;2022-07-01T07:42:12;4.18;;;3.78;;
40533;SDS011;26233;51.894;10.192;2022-07-01T07:44:39;4.63;;;3.70;;
40533;SDS011;26233;51.894;10.192;2022-07-01T07:47:06;4.07;;;3.78;;
40533;SDS011;26233;51.894;10.192;2022-07-01T07:49:33;3.75;;;3.45;;
40533;SDS011;26233;51.894;10.192;2022-07-01T07:52:02;3.65;;;3.33;;
40533;SDS011;26233;51.894;10.192;2022-07-01T07:54:33;3.58;;;3.38;;
40533;SDS011;26233;51.894;10.192;2022-07-01T07:57:00;3.75;;;3.45;;
40533;SDS011;26233;51.894;10.192;2022-07-01T07:59:27;3.78;;;3.47;;
40533;SDS011;26233;51.894;10.192;2022-07-01T08:01:54;3.78;;;3.47;;
40533;SDS011;26233;51.894;10.192;2022-07-01T08:04:21;3.97;;;3.67;;
40533;SDS011;26233;51.894;10.192;2022-07-01T08:06:48;3.75;;;3.47;;
40533;SDS011;26233;51.894;10.192;2022-07-01T08:09:17;3.88;;;3.50;;
40533;SDS011;26233;51.894;10.192;2022-07-01T08:11:44;3.97;;;3.67;;
40533;SDS011;26233;51.894;10.192;2022-07-01T08:14:11;3.92;;;3.63;;
40533;SDS011;26233;51.894;10.192;2022-07-01T08:16:38;3.95;;;3.65;;
40533;SDS011;26233;51.894;10.192;2022-07-01T08:19:06;4.05;;;3.75;;
40533;SDS011;26233;51.894;10.192;2022-07-01T08:21:33;4.68;;;4.30;;
40533;SDS011;26233;51.894;10.192;2022-07-01T08:24:00;4.07;;;3.78;;
40533;SDS011;26233;51.894;10.192;2022-07-01T08:26:28;4.30;;;3.90;;
40533;SDS011;26233;51.894;10.192;2022-07-01T08:28:56;3.70;;;3.47;;
40533;SDS011;26233;51.894;10.192;2022-07-01T08:31:23;4.50;;;4.10;;
40533;SDS011;26233;51.894;10.192;2022-07-01T08:33:50;4.63;;;4.22;;
40533;SDS011;26233;51.894;10.192;2022-07-01T08:36:17;3.95;;;3.65;;
40533;SDS011;26233;51.894;10.192;2022-07-01T08:38:44;4.45;;;4.03;;
40533;SDS011;26233;51.894;10.192;2022-07-01T08:41:13;4.05;;;3.75;;
40533;SDS011;26233;51.894;10.192;2022-07-01T08:43:41;3.85;;;3.55;;
40533;SDS011;26233;51.894;10.192;2022-07-01T08:46:08;4.57;;;4.18;;
40533;SDS011;26233;51.894;10.192;2022-07-01T08:48:35;4.43;;;4.13;;
40533;SDS011;26233;51.894;10.192;2022-07-01T08:51:03;4.43;;;4.13;;
40533;SDS011;26233;51.894;10.192;2022-07-01T08:53:31;4.72;;;4.35;;
40533;SDS011;26233;51.894;10.192;2022-07-01T08:55:58;4.30;;;4.00;;
40533;SDS011;26233;51.894;10.192;2022-07-01T08:58:44;4.60;;;4.22;;
40533;SDS011;26233;51.894;10.192;2022-07-01T09:01:13;4.45;;;4.05;;
40533;SDS011;26233;51.894;10.192;2022-07-01T09:03:42;4.47;;;4.07;;
40533;SDS011;26233;51.894;10.192;2022-07-01T09:06:11;5.18;;;4.75;;
40533;SDS011;26233;51.894;10.192;2022-07-01T09:08:40;4.45;;;4.15;;
40533;SDS011;26233;51.894;10.192;2022-07-01T09:11:11;5.03;;;4.65;;
40533;SDS011;26233;51.894;10.192;2022-07-01T09:13:40;5.00;;;4.60;;
40533;SDS011;26233;51.894;10.192;2022-07-01T09:16:12;4.90;;;4.55;;
40533;SDS011;26233;51.894;10.192;2022-07-01T09:18:41;5.05;;;4.65;;
40533;SDS011;26233;51.894;10.192;2022-07-01T09:21:27;4.78;;;4.43;;
40533;SDS011;26233;51.894;10.192;2022-07-01T09:23:56;4.85;;;4.45;;
40533;SDS011;26233;51.894;10.192;2022-07-01T09:26:24;4.95;;;4.18;;
40533;SDS011;26233;51.894;10.192;2022-07-01T09:28:53;4.30;;;4.00;;
40533;SDS011;26233;51.894;10.192;2022-07-01T09:31:22;3.97;;;3.67;;
40533;SDS011;26233;51.894;10.192;2022-07-01T09:34:03;3.60;;;3.33;;
40533;SDS011;26233;51.894;10.192;2022-07-01T09:36:32;3.67;;;3.38;;
40533;SDS011;26233;51.894;10.192;2022-07-01T09:39:05;3.40;;;3.10;;
40533;SDS011;26233;51.894;10.192;2022-07-01T09:41:35;3.60;;;3.33;;
40533;SDS011;26233;51.894;10.192;2022-07-01T09:44:04;3.60;;;3.35;;
40533;SDS011;26233;51.894;10.192;2022-07-01T09:46:33;3.70;;;3.40;;
40533;SDS011;26233;51.894;10.192;2022-07-01T09:49:00;4.18;;;3.53;;
40533;SDS011;26233;51.894;10.192;2022-07-01T09:51:28;3.65;;;3.45;;
40533;SDS011;26233;51.894;10.192;2022-07-01T09:53:55;3.75;;;3.45;;
40533;SDS011;26233;51.894;10.192;2022-07-01T09:56:22;3.85;;;3.58;;
40533;SDS011;26233;51.894;10.192;2022-07-01T09:58:50;3.60;;;3.30;;
40533;SDS011;26233;51.894;10.192;2022-07-01T10:01:17;4.15;;;3.85;;
40533;SDS011;26233;51.894;10.192;2022-07-01T10:03:46;4.43;;;4.07;;
40533;SDS011;26233;51.894;10.192;2022-07-01T10:06:24;4.13;;;3.83;;
40533;SDS011;26233;51.894;10.192;2022-07-01T10:09:12;4.55;;;4.20;;
40533;SDS011;26233;51.894;10.192;2022-07-01T10:12:00;5.05;;;4.60;;
40533;SDS011;26233;51.894;10.192;2022-07-01T10:14:58;4.72;;;4.32;;
40533;SDS011;26233;51.894;10.192;2022-07-01T10:17:27;5.72;;;5.22;;
40533;SDS011;26233;51.894;10.192;2022-07-01T10:19:57;5.95;;;5.43;;
40533;SDS011;26233;51.894;10.192;2022-07-01T10:22:38;5.57;;;5.07;;
40533;SDS011;26233;51.894;10.192;2022-07-01T10:28:17;6.28;;;5.78;;
40533;SDS011;26233;51.894;10.192;2022-07-01T10:30:53;8.00;;;6.28;;
40533;SDS011;26233;51.894;10.192;2022-07-01T10:33:40;6.75;;;6.20;;
40533;SDS011;26233;51.894;10.192;2022-07-01T10:36:13;8.18;;;7.53;;
40533;SDS011;26233;51.894;10.192;2022-07-01T10:41:38;7.82;;;7.13;;
40533;SDS011;26233;51.894;10.192;2022-07-01T10:44:09;8.15;;;7.50;;
40533;SDS011;26233;51.894;10.192;2022-07-01T10:46:42;7.93;;;7.32;;
40533;SDS011;26233;51.894;10.192;2022-07-01T10:49:11;8.63;;;7.93;;
40533;SDS011;26233;51.894;10.192;2022-07-01T10:51:44;8.88;;;8.10;;
40533;SDS011;26233;51.894;10.192;2022-07-01T10:54:14;8.70;;;8.00;;
40533;SDS011;26233;51.894;10.192;2022-07-01T10:57:25;8.75;;;8.05;;
40533;SDS011;26233;51.894;10.192;2022-07-01T10:59:56;8.93;;;8.23;;
40533;SDS011;26233;51.894;10.192;2022-07-01T11:03:14;9.32;;;8.60;;
40533;SDS011;26233;51.894;10.192;2022-07-01T11:05:45;9.63;;;8.82;;
40533;SDS011;26233;51.894;10.192;2022-07-01T11:08:16;9.57;;;8.77;;
40533;SDS011;26233;51.894;10.192;2022-07-01T11:10:49;9.13;;;8.43;;
40533;SDS011;26233;51.894;10.192;2022-07-01T11:13:19;10.00;;;9.20;;
40533;SDS011;26233;51.894;10.192;2022-07-01T11:15:48;10.18;;;9.38;;
40533;SDS011;26233;51.894;10.192;2022-07-01T11:18:16;9.95;;;9.15;;
40533;SDS011;26233;51.894;10.192;2022-07-01T11:20:43;9.45;;;8.70;;
40533;SDS011;26233;51.894;10.192;2022-07-01T11:23:10;10.18;;;9.38;;
40533;SDS011;26233;51.894;10.192;2022-07-01T11:25:38;10.10;;;9.30;;
40533;SDS011;26233;51.894;10.192;2022-07-01T11:28:06;9.98;;;9.18;;
40533;SDS011;26233;51.894;10.192;2022-07-01T11:30:36;9.05;;;8.38;;
40533;SDS011;26233;51.894;10.192;2022-07-01T11:33:04;10.57;;;9.73;;
40533;SDS011;26233;51.894;10.192;2022-07-01T11:35:31;9.13;;;8.43;;
40533;SDS011;26233;51.894;10.192;2022-07-01T11:38:26;9.88;;;9.07;;
40533;SDS011;26233;51.894;10.192;2022-07-01T11:41:17;8.60;;;7.90;;
40533;SDS011;26233;51.894;10.192;2022-07-01T11:43:50;9.85;;;9.07;;
40533;SDS011;26233;51.894;10.192;2022-07-01T11:46:17;8.85;;;8.15;;
40533;SDS011;26233;51.894;10.192;2022-07-01T11:48:48;9.88;;;9.07;;
40533;SDS011;26233;51.894;10.192;2022-07-01T11:51:18;9.88;;;9.10;;
40533;SDS011;26233;51.894;10.192;2022-07-01T11:53:47;8.93;;;8.23;;
40533;SDS011;26233;51.894;10.192;2022-07-01T11:56:17;9.48;;;8.77;;
40533;SDS011;26233;51.894;10.192;2022-07-01T11:58:55;9.02;;;8.23;;
40533;SDS011;26233;51.894;10.192;2022-07-01T12:01:27;10.30;;;9.30;;
40533;SDS011;26233;51.894;10.192;2022-07-01T12:03:59;9.68;;;8.98;;
40533;SDS011;26233;51.894;10.192;2022-07-01T12:06:28;10.02;;;9.23;;
40533;SDS011;26233;51.894;10.192;2022-07-01T12:08:56;10.07;;;9.27;;
40533;SDS011;26233;51.894;10.192;2022-07-01T12:11:25;9.50;;;8.80;;
40533;SDS011;26233;51.894;10.192;2022-07-01T12:13:54;9.15;;;8.45;;
40533;SDS011;26233;51.894;10.192;2022-07-01T12:16:22;10.02;;;9.25;;
40533;SDS011;26233;51.894;10.192;2022-07-01T12:18:52;9.35;;;8.65;;
40533;SDS011;26233;51.894;10.192;2022-07-01T12:21:23;8.98;;;8.23;;
40533;SDS011;26233;51.894;10.192;2022-07-01T12:24:05;9.68;;;8.98;;
40533;SDS011;26233;51.894;10.192;2022-07-01T12:26:45;9.57;;;8.88;;
40533;SDS011;26233;51.894;10.192;2022-07-01T12:29:19;9.32;;;8.45;;
40533;SDS011;26233;51.894;10.192;2022-07-01T12:31:55;9.35;;;8.65;;
40533;SDS011;26233;51.894;10.192;2022-07-01T12:34:36;9.13;;;8.43;;
40533;SDS011;26233;51.894;10.192;2022-07-01T12:37:10;8.65;;;8.00;;
40533;SDS011;26233;51.894;10.192;2022-07-01T12:39:43;9.02;;;8.32;;
40533;SDS011;26233;51.894;10.192;2022-07-01T12:42:20;9.15;;;8.45;;
40533;SDS011;26233;51.894;10.192;2022-07-01T12:44:53;8.80;;;8.10;;
40533;SDS011;26233;51.894;10.192;2022-07-01T12:47:25;8.35;;;7.75;;
40533;SDS011;26233;51.894;10.192;2022-07-01T12:50:08;8.20;;;7.60;;
40533;SDS011;26233;51.894;10.192;2022-07-01T12:52:42;8.38;;;7.78;;
40533;SDS011;26233;51.894;10.192;2022-07-01T12:55:23;8.30;;;7.70;;
40533;SDS011;26233;51.894;10.192;2022-07-01T12:57:51;7.90;;;7.30;;
40533;SDS011;26233;51.894;10.192;2022-07-01T13:00:21;7.43;;;6.93;;
40533;SDS011;26233;51.894;10.192;2022-07-01T13:02:51;7.75;;;7.15;;
40533;SDS011;26233;51.894;10.192;2022-07-01T13:05:20;8.18;;;7.57;;
40533;SDS011;26233;51.894;10.192;2022-07-01T13:07:49;7.70;;;7.13;;
40533;SDS011;26233;51.894;10.192;2022-07-01T13:10:17;7.57;;;7.07;;
40533;SDS011;26233;51.894;10.192;2022-07-01T13:12:45;7.30;;;6.80;;
40533;SDS011;26233;51.894;10.192;2022-07-01T13:15:14;7.15;;;6.65;;
40533;SDS011;26233;51.894;10.192;2022-07-01T13:17:43;6.95;;;6.45;;
40533;SDS011;26233;51.894;10.192;2022-07-01T13:20:12;7.38;;;6.85;;
40533;SDS011;26233;51.894;10.192;2022-07-01T13:22:41;7.45;;;6.93;;
40533;SDS011;26233;51.894;10.192;2022-07-01T13:25:10;7.28;;;6.78;;
40533;SDS011;26233;51.894;10.192;2022-07-01T13:27:38;7.47;;;6.93;;
40533;SDS011;26233;51.894;10.192;2022-07-01T13:30:08;7.53;;;6.93;;
40533;SDS011;26233;51.894;10.192;2022-07-01T13:32:37;8.18;;;7.57;;
40533;SDS011;26233;51.894;10.192;2022-07-01T13:35:05;7.75;;;7.15;;
40533;SDS011;26233;51.894;10.192;2022-07-01T13:37:34;7.45;;;6.95;;
40533;SDS011;26233;51.894;10.192;2022-07-01T13:40:02;7.88;;;7.20;;
40533;SDS011;26233;51.894;10.192;2022-07-01T13:42:31;7.53;;;7.03;;
40533;SDS011;26233;51.894;10.192;2022-07-01T13:44:58;7.00;;;6.50;;
40533;SDS011;26233;51.894;10.192;2022-07-01T13:47:25;7.70;;;7.18;;
40533;SDS011;26233;51.894;10.192;2022-07-01T13:49:52;7.03;;;6.60;;
40533;SDS011;26233;51.894;10.192;2022-07-01T13:52:19;6.72;;;6.32;;
40533;SDS011;26233;51.894;10.192;2022-07-01T13:54:46;7.43;;;6.93;;
40533;SDS011;26233;51.894;10.192;2022-07-01T13:57:14;7.03;;;6.53;;
40533;SDS011;26233;51.894;10.192;2022-07-01T13:59:43;7.38;;;6.88;;
40533;SDS011;26233;51.894;10.192;2022-07-01T14:02:10;6.40;;;6.00;;
40533;SDS011;26233;51.894;10.192;2022-07-01T14:04:38;6.93;;;6.53;;
40533;SDS011;26233;51.894;10.192;2022-07-01T14:07:05;6.90;;;6.40;;
40533;SDS011;26233;51.894;10.192;2022-07-01T14:09:36;6.63;;;6.18;;
40533;SDS011;26233;51.894;10.192;2022-07-01T14:12:04;6.60;;;6.20;;
40533;SDS011;26233;51.894;10.192;2022-07-01T14:14:32;6.60;;;6.05;;
40533;SDS011;26233;51.894;10.192;2022-07-01T14:17:00;6.15;;;5.75;;
40533;SDS011;26233;51.894;10.192;2022-07-01T14:19:27;5.95;;;5.55;;
40533;SDS011;26233;51.894;10.192;2022-07-01T14:21:54;6.45;;;5.95;;
40533;SDS011;26233;51.894;10.192;2022-07-01T14:24:21;5.85;;;5.45;;
40533;SDS011;26233;51.894;10.192;2022-07-01T14:26:49;5.93;;;5.40;;
40533;SDS011;26233;51.894;10.192;2022-07-01T14:29:16;5.85;;;5.45;;
40533;SDS011;26233;51.894;10.192;2022-07-01T14:31:43;5.93;;;5.53;;
40533;SDS011;26233;51.894;10.192;2022-07-01T14:34:12;6.03;;;5.63;;
40533;SDS011;26233;51.894;10.192;2022-07-01T14:36:39;5.90;;;5.50;;
40533;SDS011;26233;51.894;10.192;2022-07-01T14:39:06;5.97;;;5.57;;
40533;SDS011;26233;51.894;10.192;2022-07-01T14:41:33;5.18;;;4.88;;
40533;SDS011;26233;51.894;10.192;2022-07-01T14:44:01;6.63;;;6.00;;
40533;SDS011;26233;51.894;10.192;2022-07-01T14:46:28;5.78;;;5.28;;
40533;SDS011;26233;51.894;10.192;2022-07-01T14:48:56;5.35;;;4.97;;
40533;SDS011;26233;51.894;10.192;2022-07-01T14:51:24;5.70;;;5.18;;